sensor_id;sensor_type;location;lat;lon;timestamp;temperature;humidity
45489;DHT22;31236;55.026;61.042;2022-08-18T00:02:09;11.70;84.00
45489;DHT22;31236;55.026;61.042;2022-08-18T00:04:39;11.70;83.80
45489;DHT22;31236;55.026;61.042;2022-08-18T00:07:12;11.60;84.10
45489;DHT22;31236;55.026;61.042;2022-08-18T00:09:42;11.60;84.50
45489;DHT22;31236;55.026;61.042;2022-08-18T00:14:47;11.40;84.60
45489;DHT22;31236;55.026;61.042;2022-08-18T00:17:18;11.40;84.80
45489;DHT22;31236;55.026;61.042;2022-08-18T00:19:48;11.30;84.90
45489;DHT22;31236;55.026;61.042;2022-08-18T00:22:19;11.30;85.00
45489;DHT22;31236;55.026;61.042;2022-08-18T00:24:52;11.20;85.10
45489;DHT22;31236;55.026;61.042;2022-08-18T00:30:16;11.10;85.90
45489;DHT22;31236;55.026;61.042;2022-08-18T00:35:39;11.20;85.40
45489;DHT22;31236;55.026;61.042;2022-08-18T00:38:09;11.20;85.50
45489;DHT22;31236;55.026;61.042;2022-08-18T00:40:42;11.20;85.70
45489;DHT22;31236;55.026;61.042;2022-08-18T00:43:46;11.10;85.60
45489;DHT22;31236;55.026;61.042;2022-08-18T00:45:46;11.00;85.70
45489;DHT22;31236;55.026;61.042;2022-08-18T00:48:16;10.90;86.00
45489;DHT22;31236;55.026;61.042;2022-08-18T00:51:07;10.70;86.70
45489;DHT22;31236;55.026;61.042;2022-08-18T00:57:03;10.70;87.00
45489;DHT22;31236;55.026;61.042;2022-08-18T01:01:53;10.80;86.70
45489;DHT22;31236;55.026;61.042;2022-08-18T01:07:38;10.80;86.60
45489;DHT22;31236;55.026;61.042;2022-08-18T01:10:09;10.70;86.60
45489;DHT22;31236;55.026;61.042;2022-08-18T01:12:59;10.50;87.00
45489;DHT22;31236;55.026;61.042;2022-08-18T01:15:30;10.40;87.30
45489;DHT22;31236;55.026;61.042;2022-08-18T01:24:04;10.40;87.30
45489;DHT22;31236;55.026;61.042;2022-08-18T01:26:37;10.30;87.40
45489;DHT22;31236;55.026;61.042;2022-08-18T01:29:10;10.20;87.80
45489;DHT22;31236;55.026;61.042;2022-08-18T01:31:43;10.20;88.10
45489;DHT22;31236;55.026;61.042;2022-08-18T01:34:15;10.30;88.10
45489;DHT22;31236;55.026;61.042;2022-08-18T01:36:47;10.40;87.90
45489;DHT22;31236;55.026;61.042;2022-08-18T01:39:19;10.40;87.90
45489;DHT22;31236;55.026;61.042;2022-08-18T01:41:50;10.40;87.90
45489;DHT22;31236;55.026;61.042;2022-08-18T01:44:20;10.40;87.90
45489;DHT22;31236;55.026;61.042;2022-08-18T01:46:51;10.40;88.00
45489;DHT22;31236;55.026;61.042;2022-08-18T01:49:22;10.50;88.40
45489;DHT22;31236;55.026;61.042;2022-08-18T01:51:54;10.50;88.20
45489;DHT22;31236;55.026;61.042;2022-08-18T01:54:24;10.60;88.10
45489;DHT22;31236;55.026;61.042;2022-08-18T01:56:56;10.70;88.00
45489;DHT22;31236;55.026;61.042;2022-08-18T01:59:27;10.70;88.10
45489;DHT22;31236;55.026;61.042;2022-08-18T02:01:57;10.70;88.20
45489;DHT22;31236;55.026;61.042;2022-08-18T02:04:29;10.70;88.40
45489;DHT22;31236;55.026;61.042;2022-08-18T02:07:02;10.70;88.50
45489;DHT22;31236;55.026;61.042;2022-08-18T02:09:32;10.80;88.70
45489;DHT22;31236;55.026;61.042;2022-08-18T02:12:04;10.80;88.70
45489;DHT22;31236;55.026;61.042;2022-08-18T02:14:54;10.90;88.90
45489;DHT22;31236;55.026;61.042;2022-08-18T02:17:25;10.90;89.00
45489;DHT22;31236;55.026;61.042;2022-08-18T02:19:56;10.90;89.10
45489;DHT22;31236;55.026;61.042;2022-08-18T02:22:26;10.90;89.10
45489;DHT22;31236;55.026;61.042;2022-08-18T02:24:57;10.90;89.50
45489;DHT22;31236;55.026;61.042;2022-08-18T02:27:27;10.80;89.70
45489;DHT22;31236;55.026;61.042;2022-08-18T02:30:18;10.90;90.00
45489;DHT22;31236;55.026;61.042;2022-08-18T02:32:49;10.90;90.00
45489;DHT22;31236;55.026;61.042;2022-08-18T02:35:19;10.90;89.70
45489;DHT22;31236;55.026;61.042;2022-08-18T02:37:50;11.00;89.70
45489;DHT22;31236;55.026;61.042;2022-08-18T02:40:20;11.00;89.70
45489;DHT22;31236;55.026;61.042;2022-08-18T02:42:50;11.00;89.50
45489;DHT22;31236;55.026;61.042;2022-08-18T02:45:21;11.00;89.50
45489;DHT22;31236;55.026;61.042;2022-08-18T02:48:11;11.10;89.20
45489;DHT22;31236;55.026;61.042;2022-08-18T02:50:41;11.10;88.90
45489;DHT22;31236;55.026;61.042;2022-08-18T02:53:31;11.20;88.70
45489;DHT22;31236;55.026;61.042;2022-08-18T02:56:21;11.20;88.40
45489;DHT22;31236;55.026;61.042;2022-08-18T02:59:26;11.30;88.10
45489;DHT22;31236;55.026;61.042;2022-08-18T03:01:47;11.30;87.40
45489;DHT22;31236;55.026;61.042;2022-08-18T03:04:22;11.40;87.20
45489;DHT22;31236;55.026;61.042;2022-08-18T03:06:53;11.40;86.80
45489;DHT22;31236;55.026;61.042;2022-08-18T03:09:23;11.50;86.30
45489;DHT22;31236;55.026;61.042;2022-08-18T03:11:53;11.70;85.80
45489;DHT22;31236;55.026;61.042;2022-08-18T03:14:25;11.70;85.50
45489;DHT22;31236;55.026;61.042;2022-08-18T03:16:55;11.80;85.50
45489;DHT22;31236;55.026;61.042;2022-08-18T03:19:27;11.80;84.80
45489;DHT22;31236;55.026;61.042;2022-08-18T03:21:59;11.90;84.60
45489;DHT22;31236;55.026;61.042;2022-08-18T03:24:30;12.00;84.60
45489;DHT22;31236;55.026;61.042;2022-08-18T03:27:03;12.00;84.10
45489;DHT22;31236;55.026;61.042;2022-08-18T03:29:34;12.00;84.10
45489;DHT22;31236;55.026;61.042;2022-08-18T03:32:05;12.10;84.20
45489;DHT22;31236;55.026;61.042;2022-08-18T03:34:36;12.20;84.10
45489;DHT22;31236;55.026;61.042;2022-08-18T03:37:06;12.30;83.90
45489;DHT22;31236;55.026;61.042;2022-08-18T03:39:36;12.30;82.70
45489;DHT22;31236;55.026;61.042;2022-08-18T03:42:07;12.30;82.70
45489;DHT22;31236;55.026;61.042;2022-08-18T03:44:37;12.40;82.70
45489;DHT22;31236;55.026;61.042;2022-08-18T03:47:09;12.50;82.30
45489;DHT22;31236;55.026;61.042;2022-08-18T03:49:39;12.60;82.30
45489;DHT22;31236;55.026;61.042;2022-08-18T03:52:09;12.50;81.40
45489;DHT22;31236;55.026;61.042;2022-08-18T03:54:39;12.60;81.90
45489;DHT22;31236;55.026;61.042;2022-08-18T03:57:10;12.70;82.30
45489;DHT22;31236;55.026;61.042;2022-08-18T03:59:41;12.80;81.90
45489;DHT22;31236;55.026;61.042;2022-08-18T04:02:11;12.90;81.60
45489;DHT22;31236;55.026;61.042;2022-08-18T04:04:41;13.00;80.80
45489;DHT22;31236;55.026;61.042;2022-08-18T04:07:12;13.10;79.50
45489;DHT22;31236;55.026;61.042;2022-08-18T04:09:44;13.10;78.80
45489;DHT22;31236;55.026;61.042;2022-08-18T04:12:15;13.10;78.30
45489;DHT22;31236;55.026;61.042;2022-08-18T04:14:47;13.10;78.30
45489;DHT22;31236;55.026;61.042;2022-08-18T04:17:20;13.20;77.90
45489;DHT22;31236;55.026;61.042;2022-08-18T04:19:52;13.20;75.30
45489;DHT22;31236;55.026;61.042;2022-08-18T04:22:24;13.10;75.00
45489;DHT22;31236;55.026;61.042;2022-08-18T04:24:54;13.30;74.90
45489;DHT22;31236;55.026;61.042;2022-08-18T04:27:24;13.40;73.80
45489;DHT22;31236;55.026;61.042;2022-08-18T04:29:55;13.40;73.60
45489;DHT22;31236;55.026;61.042;2022-08-18T04:32:25;13.60;72.80
45489;DHT22;31236;55.026;61.042;2022-08-18T04:34:56;13.70;71.20
45489;DHT22;31236;55.026;61.042;2022-08-18T04:37:27;13.60;70.20
45489;DHT22;31236;55.026;61.042;2022-08-18T04:39:58;13.60;70.30
45489;DHT22;31236;55.026;61.042;2022-08-18T04:42:28;13.60;69.90
45489;DHT22;31236;55.026;61.042;2022-08-18T04:44:59;13.70;69.70
45489;DHT22;31236;55.026;61.042;2022-08-18T04:47:32;13.70;70.20
45489;DHT22;31236;55.026;61.042;2022-08-18T04:50:03;13.80;68.10
45489;DHT22;31236;55.026;61.042;2022-08-18T04:52:34;13.80;68.50
45489;DHT22;31236;55.026;61.042;2022-08-18T04:55:23;13.80;68.40
45489;DHT22;31236;55.026;61.042;2022-08-18T04:57:55;13.80;68.70
45489;DHT22;31236;55.026;61.042;2022-08-18T05:00:27;13.90;67.90
45489;DHT22;31236;55.026;61.042;2022-08-18T05:02:57;13.80;67.80
45489;DHT22;31236;55.026;61.042;2022-08-18T05:05:27;13.70;68.10
45489;DHT22;31236;55.026;61.042;2022-08-18T05:07:57;13.70;68.60
45489;DHT22;31236;55.026;61.042;2022-08-18T05:10:27;13.70;69.50
45489;DHT22;31236;55.026;61.042;2022-08-18T05:12:57;13.80;69.20
45489;DHT22;31236;55.026;61.042;2022-08-18T05:15:28;13.90;69.50
45489;DHT22;31236;55.026;61.042;2022-08-18T05:17:59;14.10;69.00
45489;DHT22;31236;55.026;61.042;2022-08-18T05:20:30;14.10;66.00
45489;DHT22;31236;55.026;61.042;2022-08-18T05:23:01;13.90;63.80
45489;DHT22;31236;55.026;61.042;2022-08-18T05:25:31;13.70;64.80
45489;DHT22;31236;55.026;61.042;2022-08-18T05:28:03;13.60;66.60
45489;DHT22;31236;55.026;61.042;2022-08-18T05:30:34;13.50;65.70
45489;DHT22;31236;55.026;61.042;2022-08-18T05:33:04;13.40;66.00
45489;DHT22;31236;55.026;61.042;2022-08-18T05:35:41;13.50;65.40
45489;DHT22;31236;55.026;61.042;2022-08-18T05:44:12;14.10;64.00
45489;DHT22;31236;55.026;61.042;2022-08-18T05:49:52;14.40;62.90
45489;DHT22;31236;55.026;61.042;2022-08-18T06:03:51;14.50;59.80
45489;DHT22;31236;55.026;61.042;2022-08-18T06:06:24;14.30;59.70
45489;DHT22;31236;55.026;61.042;2022-08-18T06:09:36;14.30;61.80
45489;DHT22;31236;55.026;61.042;2022-08-18T06:11:29;14.60;60.60
45489;DHT22;31236;55.026;61.042;2022-08-18T06:13:59;14.90;60.50
45489;DHT22;31236;55.026;61.042;2022-08-18T06:19:42;14.70;59.30
45489;DHT22;31236;55.026;61.042;2022-08-18T06:40:35;15.10;56.20
45489;DHT22;31236;55.026;61.042;2022-08-18T06:43:08;15.10;56.40
45489;DHT22;31236;55.026;61.042;2022-08-18T06:45:40;15.30;57.60
45489;DHT22;31236;55.026;61.042;2022-08-18T06:51:22;15.60;57.40
45489;DHT22;31236;55.026;61.042;2022-08-18T06:54:28;15.40;57.00
45489;DHT22;31236;55.026;61.042;2022-08-18T06:56:47;15.10;57.20
45489;DHT22;31236;55.026;61.042;2022-08-18T07:04:45;15.30;56.50
45489;DHT22;31236;55.026;61.042;2022-08-18T07:07:16;15.30;54.90
45489;DHT22;31236;55.026;61.042;2022-08-18T07:09:47;15.10;54.10
45489;DHT22;31236;55.026;61.042;2022-08-18T07:12:37;15.00;54.90
45489;DHT22;31236;55.026;61.042;2022-08-18T07:15:11;15.10;52.70
45489;DHT22;31236;55.026;61.042;2022-08-18T07:17:41;15.20;53.50
45489;DHT22;31236;55.026;61.042;2022-08-18T07:20:30;15.30;53.20
45489;DHT22;31236;55.026;61.042;2022-08-18T07:23:03;15.10;53.00
45489;DHT22;31236;55.026;61.042;2022-08-18T07:34:29;15.60;53.80
45489;DHT22;31236;55.026;61.042;2022-08-18T07:46:49;14.80;51.30
45489;DHT22;31236;55.026;61.042;2022-08-18T07:48:43;14.80;51.90
45489;DHT22;31236;55.026;61.042;2022-08-18T07:57:53;15.50;50.30
45489;DHT22;31236;55.026;61.042;2022-08-18T08:12:27;14.80;51.00
45489;DHT22;31236;55.026;61.042;2022-08-18T08:18:11;15.20;52.60
45489;DHT22;31236;55.026;61.042;2022-08-18T08:24:11;15.60;49.40
45489;DHT22;31236;55.026;61.042;2022-08-18T08:39:04;16.30;50.20
45489;DHT22;31236;55.026;61.042;2022-08-18T08:45:05;16.60;49.20
45489;DHT22;31236;55.026;61.042;2022-08-18T08:56:29;16.00;51.00
45489;DHT22;31236;55.026;61.042;2022-08-18T08:58:58;16.10;50.70
45489;DHT22;31236;55.026;61.042;2022-08-18T09:25:49;16.00;48.70
45489;DHT22;31236;55.026;61.042;2022-08-18T09:28:51;15.90;50.90
45489;DHT22;31236;55.026;61.042;2022-08-18T09:37:15;16.10;51.20
45489;DHT22;31236;55.026;61.042;2022-08-18T09:46:06;16.50;50.80
45489;DHT22;31236;55.026;61.042;2022-08-18T09:48:38;16.50;50.10
45489;DHT22;31236;55.026;61.042;2022-08-18T10:03:11;16.10;48.10
45489;DHT22;31236;55.026;61.042;2022-08-18T10:05:54;16.00;48.60
45489;DHT22;31236;55.026;61.042;2022-08-18T10:14:22;16.20;48.60
45489;DHT22;31236;55.026;61.042;2022-08-18T10:22:49;16.60;49.20
45489;DHT22;31236;55.026;61.042;2022-08-18T10:25:40;16.60;49.60
45489;DHT22;31236;55.026;61.042;2022-08-18T10:28:49;16.50;48.90
45489;DHT22;31236;55.026;61.042;2022-08-18T10:31:03;16.30;49.10
45489;DHT22;31236;55.026;61.042;2022-08-18T10:40:27;16.20;48.50
45489;DHT22;31236;55.026;61.042;2022-08-18T10:45:36;16.20;48.30
45489;DHT22;31236;55.026;61.042;2022-08-18T10:48:27;16.50;48.40
45489;DHT22;31236;55.026;61.042;2022-08-18T10:57:34;16.80;46.80
45489;DHT22;31236;55.026;61.042;2022-08-18T10:59:53;16.50;46.50
45489;DHT22;31236;55.026;61.042;2022-08-18T11:05:32;16.10;49.20
45489;DHT22;31236;55.026;61.042;2022-08-18T11:08:05;16.20;47.80
45489;DHT22;31236;55.026;61.042;2022-08-18T11:19:45;16.50;46.40
45489;DHT22;31236;55.026;61.042;2022-08-18T11:21:45;16.80;46.00
45489;DHT22;31236;55.026;61.042;2022-08-18T11:24:35;17.00;44.50
45489;DHT22;31236;55.026;61.042;2022-08-18T11:27:16;17.00;44.00
45489;DHT22;31236;55.026;61.042;2022-08-18T11:29:59;16.90;44.40
45489;DHT22;31236;55.026;61.042;2022-08-18T11:38:33;16.50;48.30
45489;DHT22;31236;55.026;61.042;2022-08-18T11:41:25;16.40;48.30
45489;DHT22;31236;55.026;61.042;2022-08-18T11:43:56;16.30;49.60
45489;DHT22;31236;55.026;61.042;2022-08-18T11:46:34;16.30;48.40
45489;DHT22;31236;55.026;61.042;2022-08-18T11:55:04;16.90;46.20
45489;DHT22;31236;55.026;61.042;2022-08-18T11:57:55;16.90;46.40
45489;DHT22;31236;55.026;61.042;2022-08-18T12:03:38;17.20;45.90
45489;DHT22;31236;55.026;61.042;2022-08-18T12:06:28;17.20;44.60
45489;DHT22;31236;55.026;61.042;2022-08-18T12:09:02;17.30;45.20
45489;DHT22;31236;55.026;61.042;2022-08-18T12:14:08;17.50;45.60
45489;DHT22;31236;55.026;61.042;2022-08-18T12:16:40;17.60;44.60
45489;DHT22;31236;55.026;61.042;2022-08-18T12:19:12;17.60;44.70
45489;DHT22;31236;55.026;61.042;2022-08-18T12:21:45;17.50;44.30
45489;DHT22;31236;55.026;61.042;2022-08-18T12:24:35;17.10;44.00
45489;DHT22;31236;55.026;61.042;2022-08-18T12:27:05;16.80;43.90
45489;DHT22;31236;55.026;61.042;2022-08-18T12:29:36;16.50;45.20
45489;DHT22;31236;55.026;61.042;2022-08-18T12:32:06;16.50;46.50
45489;DHT22;31236;55.026;61.042;2022-08-18T12:34:36;16.30;46.10
45489;DHT22;31236;55.026;61.042;2022-08-18T12:37:08;16.30;47.40
45489;DHT22;31236;55.026;61.042;2022-08-18T12:39:38;16.50;46.70
45489;DHT22;31236;55.026;61.042;2022-08-18T12:42:10;16.70;45.30
45489;DHT22;31236;55.026;61.042;2022-08-18T12:44:40;16.90;46.20
45489;DHT22;31236;55.026;61.042;2022-08-18T12:47:13;17.10;44.80
45489;DHT22;31236;55.026;61.042;2022-08-18T12:49:44;17.20;44.90
45489;DHT22;31236;55.026;61.042;2022-08-18T12:52:14;17.20;45.10
45489;DHT22;31236;55.026;61.042;2022-08-18T12:54:46;17.00;46.30
45489;DHT22;31236;55.026;61.042;2022-08-18T13:00:08;16.60;45.90
45489;DHT22;31236;55.026;61.042;2022-08-18T13:02:39;16.30;47.70
45489;DHT22;31236;55.026;61.042;2022-08-18T13:05:09;16.30;45.80
45489;DHT22;31236;55.026;61.042;2022-08-18T13:07:40;16.50;46.30
45489;DHT22;31236;55.026;61.042;2022-08-18T13:10:10;16.60;47.60
45489;DHT22;31236;55.026;61.042;2022-08-18T13:12:41;16.60;49.10
45489;DHT22;31236;55.026;61.042;2022-08-18T13:15:11;16.60;49.00
45489;DHT22;31236;55.026;61.042;2022-08-18T13:17:41;16.50;47.70
45489;DHT22;31236;55.026;61.042;2022-08-18T13:20:13;16.40;47.50
45489;DHT22;31236;55.026;61.042;2022-08-18T13:22:43;16.40;47.90
45489;DHT22;31236;55.026;61.042;2022-08-18T13:25:15;16.20;48.20
45489;DHT22;31236;55.026;61.042;2022-08-18T13:27:45;16.20;48.50
45489;DHT22;31236;55.026;61.042;2022-08-18T13:30:17;16.10;49.10
45489;DHT22;31236;55.026;61.042;2022-08-18T13:32:47;16.10;48.30
45489;DHT22;31236;55.026;61.042;2022-08-18T13:35:18;16.00;49.20
45489;DHT22;31236;55.026;61.042;2022-08-18T13:37:48;16.00;49.30
45489;DHT22;31236;55.026;61.042;2022-08-18T13:40:20;16.00;50.40
45489;DHT22;31236;55.026;61.042;2022-08-18T13:42:50;15.90;48.80
45489;DHT22;31236;55.026;61.042;2022-08-18T13:45:21;15.80;48.80
45489;DHT22;31236;55.026;61.042;2022-08-18T13:47:52;15.80;49.80
45489;DHT22;31236;55.026;61.042;2022-08-18T13:50:22;15.80;51.00
45489;DHT22;31236;55.026;61.042;2022-08-18T13:52:52;15.70;49.30
45489;DHT22;31236;55.026;61.042;2022-08-18T13:55:23;15.70;49.70
45489;DHT22;31236;55.026;61.042;2022-08-18T13:57:55;15.60;51.50
45489;DHT22;31236;55.026;61.042;2022-08-18T14:00:27;15.60;51.30
45489;DHT22;31236;55.026;61.042;2022-08-18T14:02:57;15.60;50.40
45489;DHT22;31236;55.026;61.042;2022-08-18T14:05:28;15.50;50.00
45489;DHT22;31236;55.026;61.042;2022-08-18T14:07:58;15.40;49.60
45489;DHT22;31236;55.026;61.042;2022-08-18T14:10:29;15.40;49.60
45489;DHT22;31236;55.026;61.042;2022-08-18T14:13:00;15.30;49.70
45489;DHT22;31236;55.026;61.042;2022-08-18T14:15:31;15.30;51.60
45489;DHT22;31236;55.026;61.042;2022-08-18T14:18:03;15.20;51.40
45489;DHT22;31236;55.026;61.042;2022-08-18T14:20:33;15.20;50.90
45489;DHT22;31236;55.026;61.042;2022-08-18T14:23:23;15.30;51.10
45489;DHT22;31236;55.026;61.042;2022-08-18T14:26:12;15.30;51.90
45489;DHT22;31236;55.026;61.042;2022-08-18T14:29:02;15.20;52.30
45489;DHT22;31236;55.026;61.042;2022-08-18T14:31:32;15.20;52.00
45489;DHT22;31236;55.026;61.042;2022-08-18T14:34:03;15.20;51.80
45489;DHT22;31236;55.026;61.042;2022-08-18T14:36:34;15.10;51.90
45489;DHT22;31236;55.026;61.042;2022-08-18T14:39:04;15.00;52.40
45489;DHT22;31236;55.026;61.042;2022-08-18T14:41:35;15.00;51.00
45489;DHT22;31236;55.026;61.042;2022-08-18T14:44:06;14.90;51.30
45489;DHT22;31236;55.026;61.042;2022-08-18T14:46:37;14.90;51.70
45489;DHT22;31236;55.026;61.042;2022-08-18T14:49:08;14.90;52.60
45489;DHT22;31236;55.026;61.042;2022-08-18T14:51:39;14.80;52.50
45489;DHT22;31236;55.026;61.042;2022-08-18T14:54:28;14.80;52.10
45489;DHT22;31236;55.026;61.042;2022-08-18T14:56:59;14.80;52.00
45489;DHT22;31236;55.026;61.042;2022-08-18T14:59:30;14.80;52.40
45489;DHT22;31236;55.026;61.042;2022-08-18T15:02:01;14.80;52.70
45489;DHT22;31236;55.026;61.042;2022-08-18T15:04:31;14.70;53.50
45489;DHT22;31236;55.026;61.042;2022-08-18T15:07:02;14.70;54.00
45489;DHT22;31236;55.026;61.042;2022-08-18T15:09:32;14.70;53.60
45489;DHT22;31236;55.026;61.042;2022-08-18T15:12:03;14.60;53.00
45489;DHT22;31236;55.026;61.042;2022-08-18T15:14:34;14.60;53.60
45489;DHT22;31236;55.026;61.042;2022-08-18T15:17:05;14.50;53.40
45489;DHT22;31236;55.026;61.042;2022-08-18T15:19:35;14.50;54.40
45489;DHT22;31236;55.026;61.042;2022-08-18T15:22:05;14.50;54.20
45489;DHT22;31236;55.026;61.042;2022-08-18T15:24:55;14.40;55.70
45489;DHT22;31236;55.026;61.042;2022-08-18T15:27:45;14.40;54.70
45489;DHT22;31236;55.026;61.042;2022-08-18T15:30:16;14.30;54.50
45489;DHT22;31236;55.026;61.042;2022-08-18T15:32:46;14.30;55.90
45489;DHT22;31236;55.026;61.042;2022-08-18T15:35:17;14.30;56.90
45489;DHT22;31236;55.026;61.042;2022-08-18T15:37:48;14.30;55.50
45489;DHT22;31236;55.026;61.042;2022-08-18T15:40:22;14.20;55.30
45489;DHT22;31236;55.026;61.042;2022-08-18T15:42:54;14.20;55.70
45489;DHT22;31236;55.026;61.042;2022-08-18T15:45:29;14.20;55.10
45489;DHT22;31236;55.026;61.042;2022-08-18T15:48:00;14.20;55.50
45489;DHT22;31236;55.026;61.042;2022-08-18T15:50:31;14.10;55.50
45489;DHT22;31236;55.026;61.042;2022-08-18T15:53:02;14.00;55.70
45489;DHT22;31236;55.026;61.042;2022-08-18T15:55:34;14.00;55.90
45489;DHT22;31236;55.026;61.042;2022-08-18T15:58:06;14.00;55.50
45489;DHT22;31236;55.026;61.042;2022-08-18T16:01:09;14.00;55.80
45489;DHT22;31236;55.026;61.042;2022-08-18T16:03:11;14.00;56.40
45489;DHT22;31236;55.026;61.042;2022-08-18T16:08:32;13.90;56.40
45489;DHT22;31236;55.026;61.042;2022-08-18T16:13:53;13.80;57.20
45489;DHT22;31236;55.026;61.042;2022-08-18T16:16:24;13.60;57.70
45489;DHT22;31236;55.026;61.042;2022-08-18T16:18:55;13.50;58.40
45489;DHT22;31236;55.026;61.042;2022-08-18T16:21:25;13.40;58.40
45489;DHT22;31236;55.026;61.042;2022-08-18T16:23:55;13.40;58.70
45489;DHT22;31236;55.026;61.042;2022-08-18T16:26:25;13.40;59.10
45489;DHT22;31236;55.026;61.042;2022-08-18T16:28:55;13.30;59.60
45489;DHT22;31236;55.026;61.042;2022-08-18T16:31:25;13.30;59.80
45489;DHT22;31236;55.026;61.042;2022-08-18T16:33:56;13.30;60.20
45489;DHT22;31236;55.026;61.042;2022-08-18T16:36:27;13.30;60.10
45489;DHT22;31236;55.026;61.042;2022-08-18T16:38:56;13.40;59.80
45489;DHT22;31236;55.026;61.042;2022-08-18T16:41:26;13.40;59.80
45489;DHT22;31236;55.026;61.042;2022-08-18T16:43:57;13.40;59.60
45489;DHT22;31236;55.026;61.042;2022-08-18T16:46:28;13.40;60.10
45489;DHT22;31236;55.026;61.042;2022-08-18T16:48:59;13.40;60.10
45489;DHT22;31236;55.026;61.042;2022-08-18T16:51:30;13.40;60.10
45489;DHT22;31236;55.026;61.042;2022-08-18T16:54:00;13.30;59.70
45489;DHT22;31236;55.026;61.042;2022-08-18T16:56:32;13.30;60.00
45489;DHT22;31236;55.026;61.042;2022-08-18T16:59:02;13.30;60.20
45489;DHT22;31236;55.026;61.042;2022-08-18T17:01:52;13.20;60.50
45489;DHT22;31236;55.026;61.042;2022-08-18T17:04:41;13.20;60.50
45489;DHT22;31236;55.026;61.042;2022-08-18T17:07:12;13.10;60.40
45489;DHT22;31236;55.026;61.042;2022-08-18T17:09:41;13.10;60.40
45489;DHT22;31236;55.026;61.042;2022-08-18T17:12:12;13.10;60.60
45489;DHT22;31236;55.026;61.042;2022-08-18T17:14:42;13.00;61.40
45489;DHT22;31236;55.026;61.042;2022-08-18T17:17:12;13.00;61.00
45489;DHT22;31236;55.026;61.042;2022-08-18T17:19:45;13.00;60.60
45489;DHT22;31236;55.026;61.042;2022-08-18T17:22:17;13.00;61.20
45489;DHT22;31236;55.026;61.042;2022-08-18T17:24:47;13.00;61.20
45489;DHT22;31236;55.026;61.042;2022-08-18T17:27:19;13.00;61.00
45489;DHT22;31236;55.026;61.042;2022-08-18T17:35:52;13.00;61.00
45489;DHT22;31236;55.026;61.042;2022-08-18T17:41:31;12.90;60.50
45489;DHT22;31236;55.026;61.042;2022-08-18T17:44:21;12.80;60.70
45489;DHT22;31236;55.026;61.042;2022-08-18T17:46:53;12.80;61.00
45489;DHT22;31236;55.026;61.042;2022-08-18T17:49:44;12.80;61.00
45489;DHT22;31236;55.026;61.042;2022-08-18T17:52:55;12.90;61.80
45489;DHT22;31236;55.026;61.042;2022-08-18T17:56:16;12.90;61.80
45489;DHT22;31236;55.026;61.042;2022-08-18T17:58:19;12.80;61.80
45489;DHT22;31236;55.026;61.042;2022-08-18T18:00:47;12.70;61.60
45489;DHT22;31236;55.026;61.042;2022-08-18T18:03:17;12.70;61.60
45489;DHT22;31236;55.026;61.042;2022-08-18T18:06:40;12.80;62.10
45489;DHT22;31236;55.026;61.042;2022-08-18T18:08:59;12.70;62.30
45489;DHT22;31236;55.026;61.042;2022-08-18T18:11:49;12.70;62.40
45489;DHT22;31236;55.026;61.042;2022-08-18T18:14:39;12.70;62.90
45489;DHT22;31236;55.026;61.042;2022-08-18T18:17:30;12.70;62.90
45489;DHT22;31236;55.026;61.042;2022-08-18T18:20:23;12.60;63.10
45489;DHT22;31236;55.026;61.042;2022-08-18T18:22:53;12.60;63.30
45489;DHT22;31236;55.026;61.042;2022-08-18T18:25:42;12.60;63.50
45489;DHT22;31236;55.026;61.042;2022-08-18T18:28:32;12.60;63.70
45489;DHT22;31236;55.026;61.042;2022-08-18T18:31:24;12.50;63.80
45489;DHT22;31236;55.026;61.042;2022-08-18T18:37:25;12.50;64.40
45489;DHT22;31236;55.026;61.042;2022-08-18T18:42:47;12.40;64.70
45489;DHT22;31236;55.026;61.042;2022-08-18T18:45:36;12.40;65.00
45489;DHT22;31236;55.026;61.042;2022-08-18T18:48:08;12.40;65.10
45489;DHT22;31236;55.026;61.042;2022-08-18T18:54:44;12.40;65.60
45489;DHT22;31236;55.026;61.042;2022-08-18T18:56:59;12.30;65.80
45489;DHT22;31236;55.026;61.042;2022-08-18T19:00:23;12.30;65.80
45489;DHT22;31236;55.026;61.042;2022-08-18T19:17:55;12.20;66.40
45489;DHT22;31236;55.026;61.042;2022-08-18T19:20:27;12.10;66.50
45489;DHT22;31236;55.026;61.042;2022-08-18T19:29:36;12.00;67.60
45489;DHT22;31236;55.026;61.042;2022-08-18T19:31:34;11.90;67.80
45489;DHT22;31236;55.026;61.042;2022-08-18T19:34:57;11.90;68.10
45489;DHT22;31236;55.026;61.042;2022-08-18T19:55:01;11.60;69.60
45489;DHT22;31236;55.026;61.042;2022-08-18T20:18:58;11.40;70.90
45489;DHT22;31236;55.026;61.042;2022-08-18T20:21:48;11.30;71.10
45489;DHT22;31236;55.026;61.042;2022-08-18T20:31:16;11.20;71.60
45489;DHT22;31236;55.026;61.042;2022-08-18T20:36:39;11.20;72.20
45489;DHT22;31236;55.026;61.042;2022-08-18T20:45:45;11.20;72.30
45489;DHT22;31236;55.026;61.042;2022-08-18T20:56:56;11.10;72.70
45489;DHT22;31236;55.026;61.042;2022-08-18T21:02:57;11.10;73.30
45489;DHT22;31236;55.026;61.042;2022-08-18T21:06:04;11.10;73.10
45489;DHT22;31236;55.026;61.042;2022-08-18T21:14:01;11.10;73.60
45489;DHT22;31236;55.026;61.042;2022-08-18T21:16:51;11.10;73.80
45489;DHT22;31236;55.026;61.042;2022-08-18T21:19:41;11.20;74.20
45489;DHT22;31236;55.026;61.042;2022-08-18T21:22:12;11.20;74.00
45489;DHT22;31236;55.026;61.042;2022-08-18T21:24:43;11.20;73.90
45489;DHT22;31236;55.026;61.042;2022-08-18T21:27:35;11.30;74.20
45489;DHT22;31236;55.026;61.042;2022-08-18T21:30:42;11.30;74.20
45489;DHT22;31236;55.026;61.042;2022-08-18T21:32:40;11.30;74.40
45489;DHT22;31236;55.026;61.042;2022-08-18T21:35:32;11.30;74.30
45489;DHT22;31236;55.026;61.042;2022-08-18T21:41:20;11.20;74.60
45489;DHT22;31236;55.026;61.042;2022-08-18T21:43:46;11.20;74.70
45489;DHT22;31236;55.026;61.042;2022-08-18T21:46:37;11.20;75.00
45489;DHT22;31236;55.026;61.042;2022-08-18T21:49:08;11.10;75.20
45489;DHT22;31236;55.026;61.042;2022-08-18T21:51:59;11.10;75.20
45489;DHT22;31236;55.026;61.042;2022-08-18T21:54:31;11.10;75.40
45489;DHT22;31236;55.026;61.042;2022-08-18T21:59:35;11.00;75.90
45489;DHT22;31236;55.026;61.042;2022-08-18T22:02:07;11.00;76.10
45489;DHT22;31236;55.026;61.042;2022-08-18T22:04:44;11.00;76.00
45489;DHT22;31236;55.026;61.042;2022-08-18T22:07:13;11.00;76.00
45489;DHT22;31236;55.026;61.042;2022-08-18T22:13:44;11.00;76.10
45489;DHT22;31236;55.026;61.042;2022-08-18T22:19:32;10.90;76.30
45489;DHT22;31236;55.026;61.042;2022-08-18T22:22:04;10.90;76.70